Time;durP1;ratioP1;P1;durP2;ratioP2;P2;SDS_P1;SDS_P2;PMS_P1;PMS_P2;Temp;Humidity;BMP_temperature;BMP_pressure;BME280_temperature;BME280_humidity;BME280_pressure;Samples;Min_cycle;Max_cycle;Signal;HPM_P1;HPM_P2
2023/03/03 00:01:44;;;;;;;93.20;31.37;;;2.00;57.50;;;;;;5031690;28;46360;-63
2023/03/03 00:04:10;;;;;;;86.70;31.60;;;2.00;57.50;;;;;;5028300;28;46430;-63
2023/03/03 00:06:35;;;;;;;88.17;31.17;;;2.10;57.60;;;;;;5029980;28;46469;-63
2023/03/03 00:09:01;;;;;;;87.17;31.03;;;2.10;57.70;;;;;;5032243;28;46236;-63
2023/03/03 00:11:27;;;;;;;103.40;32.87;;;2.10;57.80;;;;;;5032792;28;46375;-62
2023/03/03 00:13:54;;;;;;;89.63;34.33;;;2.10;58.20;;;;;;5031638;28;46315;-60
2023/03/03 00:16:25;;;;;;;115.75;37.33;;;2.10;58.30;;;;;;5028851;28;46349;-63
2023/03/03 00:18:51;;;;;;;102.50;35.13;;;2.10;58.70;;;;;;5030495;28;47180;-61
2023/03/03 00:21:24;;;;;;;102.03;34.42;;;2.10;58.70;;;;;;5035933;28;45810;-60
2023/03/03 00:23:50;;;;;;;83.40;31.98;;;2.10;58.70;;;;;;5035706;28;46633;-62
2023/03/03 00:26:29;;;;;;;113.60;37.40;;;2.00;58.70;;;;;;5036678;28;46598;-60
2023/03/03 00:28:55;;;;;;;106.68;40.05;;;1.90;59.00;;;;;;5028300;28;46472;-62
2023/03/03 00:31:33;;;;;;;111.03;40.92;;;2.00;59.50;;;;;;5028524;28;46661;-61
2023/03/03 00:34:14;;;;;;;93.32;34.33;;;1.80;59.70;;;;;;5031042;28;46417;-60
2023/03/03 00:36:40;;;;;;;89.13;31.27;;;1.70;59.90;;;;;;5028002;28;46362;-61
2023/03/03 00:39:22;;;;;;;89.28;33.05;;;1.70;61.50;;;;;;5028987;28;46511;-61
2023/03/03 00:41:48;;;;;;;89.28;33.05;;;1.60;60.60;;;;;;5031944;28;46232;-61
2023/03/03 00:44:41;;;;;;;78.97;32.90;;;1.50;60.80;;;;;;5026957;28;46360;-62
2023/03/03 00:47:22;;;;;;;83.82;31.75;;;1.40;62.20;;;;;;5032583;28;46422;-61
2023/03/03 00:49:47;;;;;;;86.03;30.65;;;1.30;61.10;;;;;;5032138;28;47222;-61
2023/03/03 00:52:17;;;;;;;81.07;29.07;;;1.30;61.20;;;;;;5035153;28;46421;-61
2023/03/03 00:54:42;;;;;;;90.72;32.47;;;1.30;61.10;;;;;;5037678;28;46436;-60
2023/03/03 00:57:09;;;;;;;88.37;33.20;;;1.30;61.20;;;;;;5031148;28;46442;-62
2023/03/03 00:59:34;;;;;;;88.28;30.83;;;1.20;61.20;;;;;;5033256;28;46453;-61
2023/03/03 01:02:00;;;;;;;89.20;31.00;;;1.20;61.40;;;;;;5028369;28;46395;-62
2023/03/03 01:04:25;;;;;;;79.90;30.47;;;1.20;61.50;;;;;;5032755;28;46478;-62
2023/03/03 01:06:51;;;;;;;84.27;29.70;;;1.10;61.60;;;;;;5034306;28;46568;-62
2023/03/03 01:09:17;;;;;;;92.83;30.03;;;1.10;61.80;;;;;;5025376;28;47036;-62
2023/03/03 01:11:42;;;;;;;85.03;29.13;;;1.00;61.80;;;;;;5024989;28;46491;-61
2023/03/03 01:14:08;;;;;;;76.00;29.20;;;1.00;62.10;;;;;;5028478;28;45828;-61
2023/03/03 01:16:34;;;;;;;90.03;32.30;;;1.00;62.30;;;;;;5029215;28;46090;-62
2023/03/03 01:18:59;;;;;;;100.43;31.10;;;1.00;62.50;;;;;;5025546;28;46398;-61
2023/03/03 01:21:25;;;;;;;87.03;31.50;;;1.00;62.20;;;;;;5028732;28;46253;-61
2023/03/03 01:23:51;;;;;;;85.10;28.70;;;1.00;62.10;;;;;;5031016;28;46453;-61
2023/03/03 01:26:16;;;;;;;97.07;31.80;;;1.00;62.00;;;;;;5033620;28;46558;-61
2023/03/03 01:28:42;;;;;;;90.13;29.67;;;1.10;61.90;;;;;;5031983;28;45998;-61
2023/03/03 01:31:08;;;;;;;96.30;30.40;;;1.10;61.80;;;;;;5035281;28;46557;-61
2023/03/03 01:33:35;;;;;;;95.23;29.00;;;1.20;61.80;;;;;;5037674;28;46419;-61
2023/03/03 01:36:01;;;;;;;104.10;32.22;;;1.10;61.80;;;;;;5031175;28;46502;-62
2023/03/03 01:38:27;;;;;;;111.00;30.77;;;1.10;61.90;;;;;;5033041;28;46491;-63
2023/03/03 01:40:54;;;;;;;97.90;30.83;;;1.10;62.20;;;;;;5038856;28;46411;-62
2023/03/03 01:43:20;;;;;;;92.90;28.05;;;1.00;62.20;;;;;;5032683;28;46524;-61
2023/03/03 01:45:48;;;;;;;81.17;30.27;;;1.00;62.20;;;;;;5031635;28;46378;-62
2023/03/03 01:48:37;;;;;;;93.63;31.45;;;1.00;62.30;;;;;;5034049;28;46279;-61
2023/03/03 01:51:13;;;;;;;90.95;30.05;;;1.00;62.70;;;;;;5034613;28;46279;-63
2023/03/03 01:53:46;;;;;;;82.75;28.13;;;1.00;62.60;;;;;;5030455;28;46444;-63
2023/03/03 01:56:13;;;;;;;98.38;31.02;;;1.00;62.70;;;;;;5033768;28;46425;-62
2023/03/03 01:58:45;;;;;;;84.47;29.52;;;1.00;62.70;;;;;;5030380;28;46050;-63
2023/03/03 02:01:16;;;;;;;90.97;29.50;;;1.00;62.70;;;;;;5035969;28;46599;-61
2023/03/03 02:03:43;;;;;;;95.65;30.70;;;1.00;62.70;;;;;;5034452;28;46382;-61
2023/03/03 02:06:13;;;;;;;90.28;28.77;;;1.00;62.80;;;;;;5032814;28;46372;-61
2023/03/03 02:08:52;;;;;;;90.28;30.27;;;1.10;62.80;;;;;;5032842;28;46481;-61
2023/03/03 02:11:20;;;;;;;90.45;29.98;;;1.00;62.80;;;;;;5035903;28;46376;-62
2023/03/03 02:13:46;;;;;;;83.40;28.05;;;1.00;62.90;;;;;;5033547;28;46509;-61
2023/03/03 02:16:11;;;;;;;88.20;28.90;;;0.90;62.90;;;;;;5038826;28;46563;-61
2023/03/03 02:18:37;;;;;;;76.77;27.67;;;0.90;63.10;;;;;;5032676;28;46379;-61
2023/03/03 02:21:26;;;;;;;81.03;28.20;;;0.80;63.20;;;;;;5035976;28;46439;-62
2023/03/03 02:24:07;;;;;;;80.93;28.80;;;0.80;63.30;;;;;;5031975;28;46494;-60
2023/03/03 02:26:40;;;;;;;80.90;28.35;;;0.80;63.30;;;;;;5028691;28;46757;-61
2023/03/03 02:29:08;;;;;;;84.22;28.35;;;0.80;63.30;;;;;;5033515;28;47319;-62
2023/03/03 02:31:33;;;;;;;91.22;27.42;;;0.80;63.10;;;;;;5028380;28;46442;-61
2023/03/03 02:33:59;;;;;;;87.20;28.87;;;0.70;63.20;;;;;;5031534;28;45841;-61
2023/03/03 02:36:28;;;;;;;87.90;28.20;;;0.70;63.20;;;;;;5029890;28;46633;-61
2023/03/03 02:39:21;;;;;;;95.65;29.00;;;0.70;63.20;;;;;;5029287;28;47260;-62
2023/03/03 02:41:54;;;;;;;80.70;28.90;;;0.70;63.30;;;;;;5027802;28;46411;-61
2023/03/03 02:44:25;;;;;;;82.82;27.15;;;0.70;63.40;;;;;;5031310;28;46525;-62
2023/03/03 02:46:52;;;;;;;85.57;28.85;;;0.70;63.40;;;;;;5032013;28;46346;-63
2023/03/03 02:49:22;;;;;;;102.88;30.52;;;0.70;63.40;;;;;;5032299;28;47411;-62
2023/03/03 02:51:48;;;;;;;86.20;28.15;;;0.70;63.50;;;;;;5031761;28;46439;-63
2023/03/03 02:54:15;;;;;;;93.22;30.83;;;0.60;63.50;;;;;;5031295;28;46403;-59
2023/03/03 02:56:41;;;;;;;88.80;28.75;;;0.60;63.60;;;;;;5032139;28;46400;-62
2023/03/03 02:59:07;;;;;;;103.17;30.80;;;0.60;63.60;;;;;;5032354;28;47219;-62
2023/03/03 03:01:35;;;;;;;91.07;29.58;;;0.60;63.60;;;;;;5031528;28;46398;-62
2023/03/03 03:04:13;;;;;;;86.25;28.95;;;0.70;63.70;;;;;;5033329;28;46374;-63
2023/03/03 03:06:39;;;;;;;94.95;27.63;;;0.70;63.50;;;;;;5031976;28;46468;-61
2023/03/03 03:09:06;;;;;;;103.13;31.90;;;0.70;63.50;;;;;;5033747;28;46275;-61
2023/03/03 03:11:34;;;;;;;83.70;29.17;;;0.70;63.50;;;;;;5033247;28;46329;-62
2023/03/03 03:14:00;;;;;;;91.72;29.48;;;0.70;63.50;;;;;;5037932;28;46445;-60
2023/03/03 03:16:26;;;;;;;92.53;30.58;;;0.70;63.60;;;;;;5032974;28;46419;-62
2023/03/03 03:18:52;;;;;;;102.60;30.70;;;0.70;63.50;;;;;;5030997;28;46443;-62
2023/03/03 03:21:17;;;;;;;87.87;27.23;;;0.60;63.60;;;;;;5029180;28;46625;-61
2023/03/03 03:23:43;;;;;;;88.60;31.17;;;0.60;63.80;;;;;;5032975;28;46260;-61
2023/03/03 03:26:10;;;;;;;86.43;28.60;;;0.60;63.60;;;;;;5029327;28;46429;-62
2023/03/03 03:28:36;;;;;;;87.85;28.58;;;0.60;63.70;;;;;;5029951;28;46472;-62
2023/03/03 03:31:04;;;;;;;74.03;27.83;;;0.60;63.80;;;;;;5035650;28;46528;-61
2023/03/03 03:33:29;;;;;;;77.22;27.23;;;0.50;63.70;;;;;;5033610;28;46576;-61
2023/03/03 03:35:56;;;;;;;73.90;25.27;;;0.50;63.70;;;;;;5030858;28;46413;-61
2023/03/03 03:38:23;;;;;;;89.20;28.00;;;0.60;63.70;;;;;;5031279;28;46346;-61
2023/03/03 03:40:49;;;;;;;85.40;27.02;;;0.60;63.60;;;;;;5034877;28;46518;-60
2023/03/03 03:43:14;;;;;;;82.07;30.50;;;0.60;63.50;;;;;;5033346;28;46352;-64
2023/03/03 03:45:43;;;;;;;87.20;26.17;;;0.50;63.50;;;;;;5035556;28;46497;-61
2023/03/03 03:48:09;;;;;;;85.05;28.05;;;0.50;63.50;;;;;;5033465;28;46021;-63
2023/03/03 03:50:35;;;;;;;89.88;28.90;;;0.60;63.50;;;;;;5032382;28;46471;-62
2023/03/03 03:53:01;;;;;;;92.07;28.20;;;0.70;63.30;;;;;;5034018;28;45823;-61
2023/03/03 03:55:27;;;;;;;83.73;30.13;;;0.80;63.00;;;;;;5031188;28;46409;-61
2023/03/03 03:57:55;;;;;;;93.60;31.38;;;1.00;62.60;;;;;;5028571;28;46635;-61
2023/03/03 04:00:21;;;;;;;81.82;29.55;;;1.20;62.00;;;;;;5030849;28;45928;-62
2023/03/03 04:02:46;;;;;;;84.63;30.00;;;1.30;61.30;;;;;;5034924;28;46347;-61
2023/03/03 04:05:12;;;;;;;89.87;32.00;;;1.50;60.80;;;;;;5033512;28;46632;-61
2023/03/03 04:07:38;;;;;;;89.93;31.27;;;1.70;60.50;;;;;;5031227;28;46349;-60
2023/03/03 04:10:04;;;;;;;83.87;30.93;;;1.80;60.00;;;;;;5029861;28;46303;-62
2023/03/03 04:12:34;;;;;;;80.60;29.95;;;1.90;59.80;;;;;;5033031;28;46566;-62
2023/03/03 04:15:00;;;;;;;87.60;31.13;;;2.10;59.80;;;;;;5031104;28;46480;-63
2023/03/03 04:17:25;;;;;;;77.33;29.37;;;2.30;59.60;;;;;;5031376;28;46372;-62
2023/03/03 04:19:54;;;;;;;96.93;33.93;;;2.30;59.40;;;;;;5032462;28;46497;-63
2023/03/03 04:22:19;;;;;;;85.95;31.20;;;2.40;59.00;;;;;;5032174;28;46434;-62
2023/03/03 04:24:47;;;;;;;81.90;29.10;;;2.40;58.90;;;;;;5025619;28;46455;-63
2023/03/03 04:27:14;;;;;;;74.75;29.73;;;2.50;59.10;;;;;;5028688;28;46447;-62
2023/03/03 04:29:40;;;;;;;72.72;29.42;;;2.50;59.00;;;;;;5034210;28;46386;-63
2023/03/03 04:32:06;;;;;;;68.10;27.92;;;2.50;59.00;;;;;;5034083;28;46403;-62
2023/03/03 04:34:32;;;;;;;77.47;28.10;;;2.60;59.30;;;;;;5030924;28;46439;-63
2023/03/03 04:36:58;;;;;;;69.83;24.90;;;2.60;59.30;;;;;;5028994;28;46443;-60
2023/03/03 04:39:23;;;;;;;75.77;28.33;;;2.70;59.50;;;;;;5030570;28;46323;-62
2023/03/03 04:41:49;;;;;;;65.53;27.30;;;2.70;59.30;;;;;;5034113;28;46362;-62
2023/03/03 04:44:14;;;;;;;65.33;27.43;;;2.80;59.30;;;;;;5031705;28;46892;-62
2023/03/03 04:46:40;;;;;;;67.83;28.70;;;2.80;59.40;;;;;;5028925;28;46350;-60
2023/03/03 04:49:07;;;;;;;64.57;25.90;;;2.80;59.40;;;;;;5026434;28;46496;-62
2023/03/03 04:51:33;;;;;;;64.88;27.17;;;2.80;59.40;;;;;;5032564;28;46379;-62
2023/03/03 04:53:59;;;;;;;79.70;29.00;;;2.80;59.40;;;;;;5034282;28;46390;-61
2023/03/03 04:56:24;;;;;;;59.10;26.70;;;2.90;59.50;;;;;;5032694;28;47175;-60
2023/03/03 04:58:50;;;;;;;69.90;28.00;;;3.00;59.60;;;;;;5033033;28;46450;-60
2023/03/03 05:01:18;;;;;;;71.32;28.50;;;2.90;59.40;;;;;;5031201;28;46394;-61
2023/03/03 05:03:43;;;;;;;66.97;27.05;;;2.90;59.40;;;;;;5032974;28;46414;-61
2023/03/03 05:06:09;;;;;;;63.47;26.40;;;3.00;59.40;;;;;;5030063;28;46449;-62
2023/03/03 05:08:35;;;;;;;62.57;26.33;;;3.00;59.40;;;;;;5031612;28;46493;-61
2023/03/03 05:11:01;;;;;;;61.07;25.27;;;3.00;59.50;;;;;;5029913;28;46426;-61
2023/03/03 05:13:26;;;;;;;62.50;26.83;;;3.00;59.40;;;;;;5032961;28;46260;-61
2023/03/03 05:15:54;;;;;;;70.73;28.67;;;3.00;59.50;;;;;;5029681;28;46371;-62
2023/03/03 05:18:20;;;;;;;68.85;27.05;;;3.00;59.60;;;;;;5035822;28;46387;-61
2023/03/03 05:20:47;;;;;;;67.28;28.13;;;3.10;59.50;;;;;;5037919;28;46828;-61
2023/03/03 05:23:12;;;;;;;69.47;27.13;;;3.10;59.50;;;;;;5039003;28;46341;-61
2023/03/03 05:25:40;;;;;;;66.10;27.07;;;3.10;59.50;;;;;;5036768;28;47293;-61
2023/03/03 05:28:06;;;;;;;68.78;26.65;;;3.10;59.50;;;;;;5037693;28;46323;-62
2023/03/03 05:30:32;;;;;;;67.47;27.27;;;3.20;59.60;;;;;;5031054;28;46287;-61
2023/03/03 05:32:58;;;;;;;56.33;27.03;;;3.20;59.60;;;;;;5032428;28;46807;-62
2023/03/03 05:35:24;;;;;;;65.80;27.60;;;3.20;59.60;;;;;;5033108;28;46261;-61
2023/03/03 05:37:51;;;;;;;68.93;26.88;;;3.20;59.60;;;;;;5032024;28;46164;-62
2023/03/03 05:40:17;;;;;;;65.57;27.35;;;3.20;59.60;;;;;;5021428;28;46466;-62
2023/03/03 05:42:43;;;;;;;68.85;27.55;;;3.30;59.70;;;;;;5026140;28;46276;-61
2023/03/03 05:45:09;;;;;;;55.22;25.45;;;3.30;59.70;;;;;;5034364;28;47183;-63
2023/03/03 05:47:35;;;;;;;65.88;26.00;;;3.30;59.70;;;;;;5033094;28;46474;-62
2023/03/03 05:50:01;;;;;;;63.80;28.70;;;3.30;59.70;;;;;;5038188;28;45792;-62
2023/03/03 05:52:27;;;;;;;57.17;25.80;;;3.40;59.80;;;;;;5031613;28;46437;-61
2023/03/03 05:54:52;;;;;;;61.03;26.03;;;3.40;59.90;;;;;;5035191;28;46520;-62
2023/03/03 05:57:18;;;;;;;65.10;27.60;;;3.40;59.80;;;;;;5034360;28;46328;-62
2023/03/03 05:59:44;;;;;;;52.50;24.17;;;3.40;59.90;;;;;;5030458;28;46450;-62
2023/03/03 06:02:09;;;;;;;54.40;25.43;;;3.40;59.80;;;;;;5028742;28;46836;-60
2023/03/03 06:04:35;;;;;;;60.90;25.40;;;3.40;59.80;;;;;;5030403;28;47075;-63
2023/03/03 06:07:01;;;;;;;62.57;26.00;;;3.40;60.90;;;;;;5014106;28;45856;-62
2023/03/03 06:09:26;;;;;;;65.60;28.30;;;3.40;59.80;;;;;;5032924;28;46391;-63
2023/03/03 06:11:52;;;;;;;53.50;22.87;;;3.40;59.80;;;;;;5032359;28;46574;-61
2023/03/03 06:14:19;;;;;;;58.73;24.57;;;3.40;59.80;;;;;;5024648;28;48170;-64
2023/03/03 06:16:46;;;;;;;60.30;25.13;;;3.40;59.90;;;;;;5030498;28;46493;-62
2023/03/03 06:19:12;;;;;;;59.07;25.90;;;3.40;59.80;;;;;;5037795;28;46589;-63
2023/03/03 06:21:38;;;;;;;59.60;24.60;;;3.40;59.80;;;;;;5033898;28;46454;-62
2023/03/03 06:24:04;;;;;;;62.83;26.40;;;3.40;59.80;;;;;;5033420;28;46568;-63
2023/03/03 06:26:31;;;;;;;63.80;25.00;;;3.40;59.80;;;;;;5031233;28;46523;-62
2023/03/03 06:28:57;;;;;;;56.90;24.87;;;3.40;59.90;;;;;;5028613;28;46414;-62
2023/03/03 06:31:22;;;;;;;54.53;25.90;;;3.50;59.90;;;;;;5029558;28;46391;-62
2023/03/03 06:33:48;;;;;;;63.10;29.50;;;3.50;59.90;;;;;;5034276;28;46453;-62
2023/03/03 06:36:14;;;;;;;69.43;30.90;;;3.60;60.00;;;;;;5034051;28;46379;-62
2023/03/03 06:38:39;;;;;;;59.53;28.53;;;3.60;60.00;;;;;;5036480;28;45862;-62
2023/03/03 06:41:07;;;;;;;67.27;30.53;;;3.60;59.60;;;;;;5033806;28;46638;-61
2023/03/03 06:43:33;;;;;;;62.73;28.87;;;3.60;59.50;;;;;;5032104;28;46265;-62
2023/03/03 06:45:59;;;;;;;70.03;33.63;;;3.60;59.40;;;;;;5030682;28;45900;-61
2023/03/03 06:48:25;;;;;;;88.03;38.50;;;3.60;59.40;;;;;;5029691;28;46368;-61
2023/03/03 06:50:50;;;;;;;78.30;36.13;;;3.60;59.30;;;;;;5032908;28;46336;-62
2023/03/03 06:53:17;;;;;;;85.03;38.57;;;3.60;59.20;;;;;;5011317;28;46331;-62
2023/03/03 06:55:44;;;;;;;71.03;31.92;;;3.70;59.20;;;;;;5030845;28;46547;-62
2023/03/03 06:58:35;;;;;;;63.83;28.55;;;3.80;59.20;;;;;;5029759;28;46394;-62
2023/03/03 07:01:01;;;;;;;64.47;27.20;;;3.70;59.00;;;;;;5028219;28;46584;-63
2023/03/03 07:03:33;;;;;;;62.53;25.70;;;3.80;59.00;;;;;;5026472;28;47086;-63
2023/03/03 07:06:00;;;;;;;63.25;26.35;;;3.80;59.00;;;;;;5029442;28;46374;-62
2023/03/03 07:08:30;;;;;;;64.97;26.25;;;3.90;59.10;;;;;;5034178;28;46350;-62
2023/03/03 07:11:00;;;;;;;65.00;28.40;;;3.90;58.90;;;;;;5031753;28;46622;-63
2023/03/03 07:13:28;;;;;;;66.63;28.47;;;3.90;58.80;;;;;;5033025;28;46454;-64
2023/03/03 07:16:00;;;;;;;60.22;25.73;;;4.00;58.80;;;;;;5032408;28;46394;-62
2023/03/03 07:18:50;;;;;;;51.47;25.23;;;4.00;58.70;;;;;;5033879;28;46415;-62
2023/03/03 07:21:30;;;;;;;63.47;26.37;;;4.10;58.70;;;;;;5035064;28;46566;-62
2023/03/03 07:23:57;;;;;;;60.25;27.55;;;4.10;58.60;;;;;;5032228;28;46496;-62
2023/03/03 07:26:29;;;;;;;62.50;26.30;;;4.10;58.60;;;;;;5031496;28;46362;-62
2023/03/03 07:29:25;;;;;;;60.03;27.30;;;4.20;58.50;;;;;;5037343;28;46471;-62
2023/03/03 07:31:53;;;;;;;60.37;26.17;;;4.20;58.40;;;;;;5032405;28;46394;-62
2023/03/03 07:34:19;;;;;;;58.53;26.50;;;4.30;58.40;;;;;;5031667;28;46486;-62
2023/03/03 07:36:45;;;;;;;59.17;26.13;;;4.30;58.10;;;;;;5029220;28;46383;-62
2023/03/03 07:39:34;;;;;;;63.60;28.77;;;4.30;57.80;;;;;;5035185;28;46352;-62
2023/03/03 07:42:26;;;;;;;59.63;26.57;;;4.30;59.00;;;;;;5018272;28;46292;-62
2023/03/03 07:44:54;;;;;;;73.73;34.23;;;4.30;57.80;;;;;;5038651;28;47336;-63
2023/03/03 07:47:27;;;;;;;64.50;31.45;;;4.40;57.80;;;;;;5029490;28;46593;-62
2023/03/03 07:49:59;;;;;;;63.00;30.57;;;4.40;57.80;;;;;;5032284;28;46298;-62
2023/03/03 07:52:32;;;;;;;70.03;31.00;;;4.40;57.80;;;;;;5032617;28;46378;-63
2023/03/03 07:55:01;;;;;;;69.97;30.20;;;4.40;57.70;;;;;;5035219;28;46436;-62
2023/03/03 07:57:38;;;;;;;71.97;28.43;;;4.30;57.80;;;;;;5033371;28;45819;-62
2023/03/03 08:00:16;;;;;;;63.23;28.13;;;4.40;57.80;;;;;;5029042;28;46348;-63
2023/03/03 08:03:03;;;;;;;62.60;25.53;;;4.30;57.70;;;;;;5031907;28;46366;-62
2023/03/03 08:05:36;;;;;;;66.53;27.87;;;4.30;57.70;;;;;;5032737;28;47372;-63
2023/03/03 08:08:08;;;;;;;61.63;27.40;;;4.40;57.80;;;;;;5028457;28;46356;-62
2023/03/03 08:10:54;;;;;;;68.60;28.53;;;4.40;57.80;;;;;;5031150;28;46526;-61
2023/03/03 08:13:32;;;;;;;70.47;29.17;;;4.50;57.60;;;;;;5028166;28;46536;-61
2023/03/03 08:16:09;;;;;;;61.70;29.00;;;4.50;57.40;;;;;;5030817;28;47382;-62
2023/03/03 08:18:37;;;;;;;73.95;31.50;;;4.60;57.40;;;;;;5028911;28;46416;-62
2023/03/03 08:21:24;;;;;;;68.30;30.00;;;4.60;57.30;;;;;;5028973;28;46469;-62
2023/03/03 08:23:50;;;;;;;64.60;27.63;;;4.60;57.10;;;;;;5033346;28;46451;-62
2023/03/03 08:26:17;;;;;;;59.67;27.40;;;4.70;57.30;;;;;;5032540;28;47016;-62
2023/03/03 08:28:43;;;;;;;68.37;31.20;;;4.60;57.20;;;;;;5027907;28;46441;-62
2023/03/03 08:31:09;;;;;;;63.40;28.37;;;4.70;57.20;;;;;;5033479;28;46280;-62
2023/03/03 08:33:35;;;;;;;63.63;26.50;;;4.70;57.20;;;;;;5037778;28;46355;-62
2023/03/03 08:36:01;;;;;;;61.17;28.67;;;4.70;57.10;;;;;;5031487;28;46312;-61
2023/03/03 08:38:27;;;;;;;67.50;31.30;;;4.90;57.20;;;;;;5036134;28;45772;-61
2023/03/03 08:40:52;;;;;;;68.73;33.10;;;5.00;57.00;;;;;;5035359;28;46258;-62
2023/03/03 08:43:21;;;;;;;66.73;28.67;;;5.10;56.60;;;;;;5021150;28;46561;-61
2023/03/03 08:45:49;;;;;;;67.00;29.30;;;5.30;56.30;;;;;;5033124;28;47108;-61
2023/03/03 08:48:15;;;;;;;66.37;29.47;;;5.40;56.00;;;;;;5034472;28;45831;-61
2023/03/03 08:50:41;;;;;;;61.77;30.27;;;5.50;55.70;;;;;;5035421;28;46423;-62
2023/03/03 08:53:08;;;;;;;67.37;30.57;;;5.70;55.50;;;;;;5036319;28;45815;-62
2023/03/03 08:55:33;;;;;;;61.90;28.33;;;5.80;55.20;;;;;;5036716;28;46194;-63
2023/03/03 08:57:59;;;;;;;66.50;29.47;;;6.00;55.00;;;;;;5036110;28;46381;-63
2023/03/03 09:00:25;;;;;;;63.70;29.77;;;6.10;54.70;;;;;;5035070;28;46454;-62
2023/03/03 09:02:52;;;;;;;66.13;30.37;;;6.10;54.50;;;;;;5035856;28;46337;-63
2023/03/03 09:05:19;;;;;;;56.93;28.43;;;6.10;54.80;;;;;;5038377;28;46417;-63
2023/03/03 09:07:46;;;;;;;61.90;29.37;;;6.30;54.60;;;;;;5034619;28;45896;-62
2023/03/03 09:10:16;;;;;;;63.20;30.20;;;6.40;54.40;;;;;;5033861;28;45925;-61
2023/03/03 09:12:49;;;;;;;72.53;28.20;;;6.60;54.00;;;;;;5035981;28;46600;-62
2023/03/03 09:15:22;;;;;;;66.97;31.93;;;6.80;53.50;;;;;;5037869;28;47168;-62
2023/03/03 09:17:49;;;;;;;61.80;28.63;;;6.90;53.00;;;;;;5032945;28;46368;-62
2023/03/03 09:20:42;;;;;;;61.70;29.97;;;7.00;52.70;;;;;;5036464;28;46300;-62
2023/03/03 09:23:32;;;;;;;66.17;31.07;;;7.10;52.70;;;;;;5033729;28;46436;-62
2023/03/03 09:26:14;;;;;;;59.43;28.90;;;7.10;53.00;;;;;;5037894;28;46203;-62
2023/03/03 09:28:41;;;;;;;62.60;31.13;;;7.00;53.00;;;;;;5031314;28;46382;-62
2023/03/03 09:31:30;;;;;;;55.77;28.00;;;7.00;53.30;;;;;;5034531;28;46284;-62
2023/03/03 09:33:58;;;;;;;57.73;29.47;;;6.90;53.70;;;;;;5032613;28;45905;-63
2023/03/03 09:36:27;;;;;;;63.43;29.13;;;6.90;53.80;;;;;;5031796;28;46412;-62
2023/03/03 09:38:55;;;;;;;60.20;30.10;;;6.80;53.80;;;;;;5033556;28;46119;-62
2023/03/03 09:41:58;;;;;;;56.90;28.07;;;6.90;53.70;;;;;;5034061;28;46471;-62
2023/03/03 09:44:53;;;;;;;59.07;28.77;;;6.80;53.90;;;;;;5036540;28;46432;-62
2023/03/03 09:47:51;;;;;;;64.03;30.40;;;6.70;53.80;;;;;;5032732;28;46387;-63
2023/03/03 09:50:35;;;;;;;57.00;28.30;;;6.90;53.70;;;;;;5030288;28;45776;-62
2023/03/03 09:53:28;;;;;;;65.17;29.80;;;7.40;52.20;;;;;;5033927;28;46425;-62
2023/03/03 09:56:00;;;;;;;66.53;30.47;;;7.50;50.90;;;;;;5036051;28;46630;-61
2023/03/03 09:58:44;;;;;;;59.53;30.23;;;7.30;50.60;;;;;;5033423;28;46381;-61
2023/03/03 10:01:39;;;;;;;58.90;31.10;;;7.40;50.40;;;;;;5030231;28;45752;-62
2023/03/03 10:04:39;;;;;;;59.87;29.70;;;7.50;50.50;;;;;;5033428;28;46395;-62
2023/03/03 10:07:07;;;;;;;63.17;29.43;;;7.50;50.40;;;;;;5035196;28;46505;-62
2023/03/03 10:09:42;;;;;;;65.07;30.13;;;7.50;50.50;;;;;;5033960;28;47133;-62
2023/03/03 10:12:27;;;;;;;54.50;28.70;;;7.60;50.50;;;;;;5035075;28;46293;-61
2023/03/03 10:15:02;;;;;;;60.67;28.60;;;7.80;49.00;;;;;;5033628;28;46395;-62
2023/03/03 10:17:49;;;;;;;62.13;30.83;;;7.80;49.20;;;;;;5031516;28;46647;-62
2023/03/03 10:20:36;;;;;;;60.90;30.30;;;7.90;48.90;;;;;;5034120;28;46641;-62
2023/03/03 10:23:19;;;;;;;58.70;28.80;;;8.00;48.50;;;;;;5032567;28;46426;-62
2023/03/03 10:26:09;;;;;;;60.27;28.60;;;8.10;48.30;;;;;;5032030;28;46387;-62
2023/03/03 10:29:05;;;;;;;69.00;29.17;;;8.40;47.90;;;;;;5033702;28;45915;-62
2023/03/03 10:31:55;;;;;;;54.23;28.40;;;8.70;47.00;;;;;;5033579;28;47028;-62
2023/03/03 10:34:42;;;;;;;62.80;29.63;;;8.90;46.30;;;;;;5032546;28;46327;-62
2023/03/03 10:37:42;;;;;;;57.80;29.07;;;8.90;46.50;;;;;;5033229;28;46706;-62
2023/03/03 10:40:45;;;;;;;60.50;30.40;;;8.90;46.30;;;;;;5028675;28;46331;-62
2023/03/03 10:43:24;;;;;;;58.97;30.10;;;9.10;45.80;;;;;;5031769;28;46208;-62
2023/03/03 10:46:18;;;;;;;57.20;31.03;;;9.10;46.00;;;;;;5030551;28;46415;-62
2023/03/03 10:48:47;;;;;;;63.63;29.77;;;9.10;45.90;;;;;;5005305;28;46452;-62
2023/03/03 10:51:31;;;;;;;60.23;29.63;;;9.00;46.10;;;;;;5034369;28;45887;-60
2023/03/03 10:54:17;;;;;;;65.73;32.07;;;9.10;45.90;;;;;;5029574;28;46046;-62
2023/03/03 10:56:58;;;;;;;56.90;29.53;;;9.30;45.10;;;;;;5033976;28;46368;-62
2023/03/03 10:59:36;;;;;;;58.50;29.77;;;9.40;44.90;;;;;;5037203;28;46425;-62
2023/03/03 11:02:27;;;;;;;55.57;28.37;;;9.60;44.50;;;;;;5039289;28;46343;-62
2023/03/03 11:05:17;;;;;;;58.60;28.97;;;9.70;43.90;;;;;;5033487;28;46554;-62
2023/03/03 11:07:47;;;;;;;57.60;30.70;;;9.70;43.80;;;;;;5031875;28;46316;-62
2023/03/03 11:10:42;;;;;;;63.23;31.20;;;9.60;44.20;;;;;;5027115;28;45776;-62
2023/03/03 11:13:28;;;;;;;54.97;30.20;;;9.80;44.10;;;;;;5028639;28;46292;-62
2023/03/03 11:16:02;;;;;;;53.33;28.00;;;10.10;42.50;;;;;;5034435;28;46485;-62
2023/03/03 11:18:49;;;;;;;55.70;29.23;;;10.00;41.80;;;;;;5030899;28;46344;-62
2023/03/03 11:21:39;;;;;;;55.37;27.67;;;9.70;43.40;;;;;;5032188;28;45765;-62
2023/03/03 11:24:18;;;;;;;53.87;28.30;;;9.60;43.50;;;;;;5035078;28;46414;-61
2023/03/03 11:27:03;;;;;;;54.17;28.50;;;9.80;44.30;;;;;;5034452;28;46422;-62
2023/03/03 11:30:08;;;;;;;51.67;28.63;;;9.90;42.40;;;;;;5031295;28;46362;-61
2023/03/03 11:32:52;;;;;;;53.73;29.03;;;10.00;40.20;;;;;;4933251;28;46416;-63
2023/03/03 11:35:36;;;;;;;64.37;29.90;;;10.00;40.20;;;;;;5019668;28;45855;-61
2023/03/03 11:38:28;;;;;;;48.33;27.17;;;10.00;40.20;;;;;;5030526;28;46169;-61
2023/03/03 11:41:01;;;;;;;54.33;29.60;;;10.20;39.80;;;;;;5027572;28;46356;-60
2023/03/03 11:43:33;;;;;;;53.77;28.13;;;10.20;39.80;;;;;;5031925;28;46451;-63
2023/03/03 11:46:26;;;;;;;56.33;28.80;;;10.40;39.40;;;;;;5031131;28;46478;-62
2023/03/03 11:49:03;;;;;;;56.93;29.13;;;10.30;39.70;;;;;;5004786;28;47169;-62
2023/03/03 11:51:40;;;;;;;56.43;29.33;;;10.20;39.40;;;;;;5031895;28;46459;-62
2023/03/03 11:54:16;;;;;;;56.53;27.93;;;10.30;38.90;;;;;;5028265;28;46201;-62
2023/03/03 11:56:45;;;;;;;56.13;29.07;;;10.50;38.80;;;;;;5024661;28;46562;-61
2023/03/03 11:59:22;;;;;;;60.27;31.43;;;10.20;38.60;;;;;;5028551;28;46441;-63
2023/03/03 12:02:13;;;;;;;53.20;29.70;;;9.90;39.30;;;;;;5030391;28;46276;-62
2023/03/03 12:05:00;;;;;;;56.07;29.17;;;9.60;38.40;;;;;;5028308;28;46409;-62
2023/03/03 12:07:45;;;;;;;56.90;31.10;;;9.60;40.20;;;;;;5027017;28;46475;-62
2023/03/03 12:10:31;;;;;;;57.10;29.23;;;9.90;39.30;;;;;;5028166;28;47284;-62
2023/03/03 12:13:19;;;;;;;64.23;32.67;;;10.00;37.60;;;;;;5032080;28;46435;-62
2023/03/03 12:16:03;;;;;;;57.77;29.33;;;10.30;36.70;;;;;;5037765;28;46438;-62
2023/03/03 12:18:59;;;;;;;53.00;27.93;;;10.40;36.30;;;;;;5030856;28;46369;-61
2023/03/03 12:22:05;;;;;;;61.60;30.70;;;10.60;35.90;;;;;;5032306;28;47106;-62
2023/03/03 12:24:53;;;;;;;61.90;30.73;;;10.90;35.70;;;;;;5027478;28;46553;-61
2023/03/03 12:27:33;;;;;;;54.20;28.63;;;11.00;35.20;;;;;;5031983;28;46575;-62
2023/03/03 12:30:13;;;;;;;61.17;29.43;;;10.80;35.50;;;;;;5030093;28;46518;-62
2023/03/03 12:33:14;;;;;;;52.63;28.73;;;10.70;36.10;;;;;;5030610;28;46428;-62
2023/03/03 12:36:06;;;;;;;54.13;28.43;;;10.80;35.90;;;;;;5028269;28;46492;-62
2023/03/03 12:38:56;;;;;;;55.23;30.20;;;10.90;35.40;;;;;;5011173;28;46597;-62
2023/03/03 12:41:47;;;;;;;61.13;30.87;;;11.10;35.00;;;;;;5025904;28;46470;-61
2023/03/03 12:44:33;;;;;;;56.63;29.50;;;11.20;34.10;;;;;;5029791;28;46430;-62
2023/03/03 12:47:13;;;;;;;60.23;30.67;;;11.30;33.90;;;;;;5030598;28;46315;-62
2023/03/03 12:50:07;;;;;;;64.43;30.73;;;11.50;33.80;;;;;;5032475;28;46457;-62
2023/03/03 12:52:53;;;;;;;61.27;32.00;;;11.50;33.90;;;;;;5036039;28;46583;-62
2023/03/03 12:55:25;;;;;;;58.50;30.63;;;11.20;34.70;;;;;;4996273;28;46569;-62
2023/03/03 12:58:09;;;;;;;51.67;29.43;;;11.10;35.00;;;;;;5029963;28;46394;-61
2023/03/03 13:01:00;;;;;;;63.10;31.13;;;10.90;35.50;;;;;;5032840;28;46337;-62
2023/03/03 13:03:37;;;;;;;59.03;29.90;;;10.80;35.50;;;;;;5031191;28;46423;-62
2023/03/03 13:06:22;;;;;;;54.00;31.60;;;10.70;35.20;;;;;;5033191;28;47214;-62